Time;durP1;ratioP1;P1;durP2;ratioP2;P2;SDS_P1;SDS_P2;PMS_P1;PMS_P2;Temp;Humidity;BMP_temperature;BMP_pressure;BME280_temperature;BME280_humidity;BME280_pressure;Samples;Min_cycle;Max_cycle;Signal;HPM_P1;HPM_P2
2021/03/29 00:00:54;;;;;;;6.47;4.10;;;;;;;23.81;16.64;95763.59;5057300;28;20059;-47
2021/03/29 00:03:21;;;;;;;6.68;3.80;;;;;;;22.70;18.00;95761.16;5075157;28;20359;-48
2021/03/29 00:05:48;;;;;;;5.35;3.85;;;;;;;22.50;17.99;95757.41;5075062;28;20366;-47
2021/03/29 00:08:22;;;;;;;7.05;3.90;;;;;;;22.28;18.20;95771.09;5074879;28;20074;-48
2021/03/29 00:10:52;;;;;;;7.13;3.88;;;;;;;22.73;17.74;95761.25;5057112;28;20040;-47
2021/03/29 00:13:21;;;;;;;5.95;4.07;;;;;;;22.81;17.79;95766.81;5057801;28;20044;-47
2021/03/29 00:15:51;;;;;;;6.90;4.32;;;;;;;21.70;18.63;95754.13;5057390;28;20040;-46
2021/03/29 00:18:18;;;;;;;8.00;4.43;;;;;;;22.79;17.93;95764.50;5074975;28;20052;-49
2021/03/29 00:21:07;;;;;;;5.10;3.90;;;;;;;22.98;17.75;95761.34;5040374;28;20055;-46
2021/03/29 00:23:35;;;;;;;8.55;4.35;;;;;;;23.33;17.15;95751.03;5074803;28;20044;-48
2021/03/29 00:26:10;;;;;;;5.80;3.72;;;;;;;22.37;17.82;95750.47;5082886;28;20055;-46
2021/03/29 00:28:38;;;;;;;5.75;4.00;;;;;;;23.06;17.01;95739.91;5077575;28;20370;-47
2021/03/29 00:31:06;;;;;;;4.88;3.45;;;;;;;23.67;16.72;95745.25;5094942;28;20051;-46
2021/03/29 00:33:34;;;;;;;4.35;3.05;;;;;;;23.30;16.98;95739.13;5095053;28;20434;-46
2021/03/29 00:36:02;;;;;;;7.30;3.88;;;;;;;22.72;17.63;95738.38;5077125;28;20048;-47
2021/03/29 00:38:30;;;;;;;4.95;3.67;;;;;;;23.00;16.95;95735.13;5094783;28;20052;-47
2021/03/29 00:41:01;;;;;;;6.50;3.53;;;;;;;22.65;17.63;95740.81;5076536;28;20044;-55
2021/03/29 00:43:35;;;;;;;4.63;3.17;;;;;;;22.17;17.89;95743.31;5084562;28;20056;-47
2021/03/29 00:46:03;;;;;;;6.55;3.85;;;;;;;22.33;17.60;95742.38;5040513;28;20055;-49
2021/03/29 00:48:31;;;;;;;5.25;3.50;;;;;;;21.82;18.25;95743.53;5057070;28;20060;-47
2021/03/29 00:51:10;;;;;;;7.38;3.60;;;;;;;22.15;18.25;95741.75;5056809;28;20045;-48
2021/03/29 00:53:41;;;;;;;5.65;3.63;;;;;;;22.60;17.62;95743.66;5056874;28;20444;-46
2021/03/29 00:56:08;;;;;;;7.15;3.90;;;;;;;22.78;17.26;95742.38;5056205;28;20060;-48
2021/03/29 00:58:36;;;;;;;5.55;3.88;;;;;;;22.69;17.47;95754.25;5074684;28;20060;-46
2021/03/29 01:01:15;;;;;;;5.85;3.70;;;;;;;22.34;17.46;95749.25;5056671;28;20049;-48
2021/03/29 01:03:48;;;;;;;9.13;4.65;;;;;;;22.53;17.28;95746.09;5057034;28;20045;-45
2021/03/29 01:06:20;;;;;;;5.53;3.85;;;;;;;21.54;19.01;95741.38;5074405;28;20451;-47
2021/03/29 01:09:00;;;;;;;5.20;3.92;;;;;;;22.17;17.75;95753.97;5074672;28;20788;-47
2021/03/29 01:12:01;;;;;;;5.43;3.95;;;;;;;23.06;17.04;95747.13;5059363;28;20047;-48
2021/03/29 01:14:35;;;;;;;8.82;3.80;;;;;;;23.85;16.18;95750.34;5074308;28;20059;-46
2021/03/29 01:17:07;;;;;;;5.28;3.90;;;;;;;23.03;16.61;95739.78;5056712;28;20052;-47
2021/03/29 01:19:48;;;;;;;5.57;4.45;;;;;;;22.86;16.80;95738.09;5058842;28;20059;-46
2021/03/29 01:22:20;;;;;;;5.55;3.70;;;;;;;23.22;16.79;95747.25;5080506;28;20055;-47
2021/03/29 01:25:09;;;;;;;5.57;3.85;;;;;;;22.77;16.96;95746.16;5082173;28;20055;-47
2021/03/29 01:28:09;;;;;;;5.78;3.67;;;;;;;22.60;16.86;95737.56;5077760;28;20059;-46
2021/03/29 01:30:38;;;;;;;7.05;3.97;;;;;;;24.06;16.01;95744.84;5077666;28;20354;-47
2021/03/29 01:33:07;;;;;;;5.53;3.45;;;;;;;22.31;17.40;95749.13;5060052;28;20056;-48
2021/03/29 01:35:37;;;;;;;6.65;3.65;;;;;;;23.45;16.38;95742.25;5060080;28;20443;-47
2021/03/29 01:38:05;;;;;;;5.13;3.33;;;;;;;23.59;16.42;95743.47;5077670;28;20055;-49
2021/03/29 01:40:35;;;;;;;5.15;3.53;;;;;;;22.45;17.51;95745.09;5077547;28;20051;-47
2021/03/29 01:43:02;;;;;;;6.35;3.65;;;;;;;24.22;15.65;95743.00;5077601;28;20364;-48
2021/03/29 01:45:30;;;;;;;5.68;3.60;;;;;;;21.87;17.90;95740.69;5060017;28;20048;-46
2021/03/29 01:47:58;;;;;;;8.25;3.97;;;;;;;22.85;16.69;95735.75;5060025;28;20057;-48
2021/03/29 01:50:30;;;;;;;6.38;4.20;;;;;;;21.75;17.91;95737.94;5059659;28;20443;-47
2021/03/29 01:52:58;;;;;;;7.03;3.92;;;;;;;22.76;17.18;95738.50;5059767;28;20049;-46
2021/03/29 01:55:28;;;;;;;5.90;3.90;;;;;;;22.54;17.42;95731.66;5079312;28;20044;-48
2021/03/29 01:57:55;;;;;;;6.63;4.85;;;;;;;22.14;17.86;95732.22;5096580;28;20064;-47
2021/03/29 02:00:25;;;;;;;6.82;4.05;;;;;;;22.65;17.13;95732.81;5079952;28;20048;-47
2021/03/29 02:02:53;;;;;;;5.72;4.05;;;;;;;22.14;18.19;95737.53;5097413;28;20082;-46
2021/03/29 02:05:21;;;;;;;6.90;4.45;;;;;;;21.34;18.76;95736.81;5097426;28;20043;-49
2021/03/29 02:07:49;;;;;;;9.45;4.40;;;;;;;23.09;16.90;95741.13;5097301;28;20048;-46
2021/03/29 02:10:27;;;;;;;6.45;4.63;;;;;;;21.53;18.71;95742.47;5097446;28;20052;-48
2021/03/29 02:12:54;;;;;;;7.40;4.18;;;;;;;20.69;19.33;95737.97;5079484;28;20047;-46
2021/03/29 02:15:26;;;;;;;9.15;4.32;;;;;;;21.65;18.55;95748.97;5097346;28;20047;-47
2021/03/29 02:18:00;;;;;;;5.45;4.45;;;;;;;21.70;18.82;95740.81;5079100;28;20056;-47
2021/03/29 02:20:31;;;;;;;7.05;4.45;;;;;;;22.63;17.64;95740.34;5078572;28;20052;-47
2021/03/29 02:23:00;;;;;;;6.22;4.18;;;;;;;23.61;16.49;95740.47;5096869;28;20382;-47
2021/03/29 02:25:29;;;;;;;8.00;4.53;;;;;;;22.74;17.32;95738.84;5093669;28;20043;-48
2021/03/29 02:27:58;;;;;;;7.50;4.70;;;;;;;21.50;18.96;95729.81;5078632;28;20126;-49
2021/03/29 02:30:28;;;;;;;8.43;4.15;;;;;;;22.92;17.30;95733.34;5097104;28;20044;-49
2021/03/29 02:32:56;;;;;;;9.00;4.75;;;;;;;21.59;18.74;95743.06;5079020;28;20047;-50
2021/03/29 02:35:24;;;;;;;11.95;4.70;;;;;;;21.68;18.51;95738.47;5097054;28;20047;-47
2021/03/29 02:37:54;;;;;;;10.13;4.45;;;;;;;23.27;17.06;95736.34;5096425;28;20048;-49
2021/03/29 02:40:23;;;;;;;9.00;4.70;;;;;;;21.11;19.21;95741.56;5096879;28;20056;-48
2021/03/29 02:42:52;;;;;;;10.75;5.32;;;;;;;21.95;18.50;95737.19;5078731;28;20438;-48
2021/03/29 02:45:19;;;;;;;20.10;6.32;;;;;;;21.36;19.40;95739.91;5096871;28;20044;-47
2021/03/29 02:47:47;;;;;;;15.93;7.03;;;;;;;21.17;19.75;95739.50;5096470;28;20043;-47
2021/03/29 02:50:23;;;;;;;13.88;6.50;;;;;;;21.66;19.18;95734.56;5095971;28;20063;-50
2021/03/29 02:52:56;;;;;;;19.27;6.70;;;;;;;22.01;18.53;95735.88;5096361;28;20055;-47
2021/03/29 02:55:23;;;;;;;17.75;6.30;;;;;;;21.32;19.71;95746.97;5096282;28;20462;-48
2021/03/29 02:57:53;;;;;;;19.02;7.00;;;;;;;21.47;19.92;95749.06;5068424;28;20083;-48
2021/03/29 03:00:23;;;;;;;12.90;5.75;;;;;;;21.40;19.77;95743.50;5076416;28;20063;-47
2021/03/29 03:02:52;;;;;;;16.23;6.50;;;;;;;20.91;20.35;95748.38;5075886;28;20363;-46
2021/03/29 03:05:21;;;;;;;11.60;6.10;;;;;;;22.24;19.02;95743.56;5058516;28;20052;-48
2021/03/29 03:07:48;;;;;;;11.27;5.32;;;;;;;21.08;20.23;95757.34;5075784;28;20045;-48
2021/03/29 03:10:17;;;;;;;13.20;6.35;;;;;;;21.01;20.45;95746.44;5041710;28;20067;-47
2021/03/29 03:12:45;;;;;;;14.30;6.25;;;;;;;21.30;20.04;95754.47;5075773;28;20486;-48
2021/03/29 03:15:23;;;;;;;19.23;6.63;;;;;;;22.96;17.92;95742.25;5075869;28;20045;-48
2021/03/29 03:17:51;;;;;;;10.65;5.78;;;;;;;21.96;18.96;95749.38;5075467;28;20052;-47
2021/03/29 03:20:18;;;;;;;12.73;5.95;;;;;;;21.42;19.81;95746.59;5074488;28;20055;-47
2021/03/29 03:22:53;;;;;;;13.02;5.10;;;;;;;21.44;19.66;95756.94;5075660;28;20059;-47
2021/03/29 03:25:35;;;;;;;15.43;6.32;;;;;;;22.53;18.54;95750.66;5078543;28;20055;-46
2021/03/29 03:28:05;;;;;;;14.73;6.10;;;;;;;21.11;20.76;95751.44;5095548;28;20055;-48
2021/03/29 03:30:41;;;;;;;13.52;6.30;;;;;;;21.55;20.04;95756.22;5078121;28;20070;-49
2021/03/29 03:33:10;;;;;;;11.68;6.60;;;;;;;20.90;20.54;95757.44;5095172;28;20058;-47
2021/03/29 03:35:38;;;;;;;12.93;6.40;;;;;;;21.24;20.90;95745.91;5095742;28;20055;-47
2021/03/29 03:38:21;;;;;;;11.05;6.30;;;;;;;21.83;19.75;95761.06;5077400;28;20052;-47
2021/03/29 03:41:24;;;;;;;20.00;7.57;;;;;;;21.00;20.58;95747.53;5077947;28;20059;-49
2021/03/29 03:43:54;;;;;;;15.07;7.77;;;;;;;21.03;20.70;95741.59;5050565;28;20043;-46
2021/03/29 03:46:23;;;;;;;14.07;7.82;;;;;;;21.51;20.07;95760.63;5077832;28;20274;-46
2021/03/29 03:48:58;;;;;;;17.70;8.20;;;;;;;20.47;21.28;95748.78;5078501;28;20044;-46
2021/03/29 03:51:26;;;;;;;14.80;7.78;;;;;;;20.65;21.50;95758.28;5057643;28;20052;-48
2021/03/29 03:53:54;;;;;;;18.38;8.43;;;;;;;20.20;22.13;95755.97;5075214;28;20059;-50
2021/03/29 03:56:22;;;;;;;14.68;8.52;;;;;;;20.25;21.77;95758.47;5084725;28;20056;-47
2021/03/29 03:58:52;;;;;;;21.80;10.95;;;;;;;19.62;21.97;95754.53;5077106;28;20366;-46
2021/03/29 04:01:19;;;;;;;18.50;9.80;;;;;;;20.85;20.46;95749.66;5095438;28;20044;-48
2021/03/29 04:03:47;;;;;;;15.25;9.52;;;;;;;21.08;20.79;95747.53;5077522;28;20054;-45
2021/03/29 04:06:14;;;;;;;14.45;9.23;;;;;;;20.04;21.58;95741.63;5077385;28;20060;-48
2021/03/29 04:08:45;;;;;;;14.32;8.85;;;;;;;21.21;20.28;95732.44;5077143;28;20358;-46
2021/03/29 04:11:13;;;;;;;18.58;10.15;;;;;;;20.33;21.55;95727.69;5095375;28;20059;-47
2021/03/29 04:13:40;;;;;;;19.27;9.63;;;;;;;20.13;21.95;95729.13;5077411;28;20054;-48
2021/03/29 04:16:08;;;;;;;20.20;9.45;;;;;;;21.20;20.68;95744.19;5095113;28;20051;-48
2021/03/29 04:18:35;;;;;;;16.17;8.95;;;;;;;20.26;21.63;95746.75;5095019;28;20059;-46
2021/03/29 04:21:06;;;;;;;13.88;8.77;;;;;;;25.24;17.49;95740.69;5081230;28;20055;-44
2021/03/29 04:23:46;;;;;;;15.70;8.90;;;;;;;28.06;14.73;95745.53;5059971;28;20040;-47
2021/03/29 04:26:13;;;;;;;15.63;9.23;;;;;;;29.55;13.70;95740.16;5078438;28;20064;-45
2021/03/29 04:28:40;;;;;;;15.23;8.07;;;;;;;30.78;12.60;95738.41;5077869;28;20047;-47
2021/03/29 04:31:07;;;;;;;12.48;8.20;;;;;;;31.59;12.33;95737.69;5040672;28;20044;-47
2021/03/29 04:33:34;;;;;;;19.05;8.70;;;;;;;32.20;11.45;95735.59;5059545;28;20466;-43
2021/03/29 04:36:02;;;;;;;16.40;9.73;;;;;;;32.70;11.54;95740.78;5040952;28;20452;-46
2021/03/29 04:38:29;;;;;;;14.40;9.95;;;;;;;32.56;10.64;95732.78;5074365;28;20059;-48
2021/03/29 04:40:56;;;;;;;21.98;17.75;;;;;;;27.94;13.74;95738.50;5074699;28;20060;-48
2021/03/29 04:43:23;;;;;;;26.13;18.58;;;;;;;27.13;14.09;95748.03;5074853;28;20474;-52
2021/03/29 04:45:50;;;;;;;25.33;15.52;;;;;;;25.74;15.43;95746.06;5074910;28;20057;-48
2021/03/29 04:48:17;;;;;;;22.13;15.23;;;;;;;25.06;15.90;95759.00;5074435;28;20431;-47
2021/03/29 04:50:44;;;;;;;21.75;13.93;;;;;;;25.36;15.81;95762.78;5074065;28;20064;-48
2021/03/29 04:53:11;;;;;;;18.60;12.43;;;;;;;25.07;16.24;95772.03;5074586;28;20359;-47
2021/03/29 04:55:39;;;;;;;19.20;11.50;;;;;;;24.45;16.24;95768.09;5075708;28;20463;-48
2021/03/29 04:58:06;;;;;;;19.27;12.48;;;;;;;24.76;18.00;95771.97;5085137;28;20056;-48
2021/03/29 05:00:33;;;;;;;27.30;13.50;;;;;;;24.99;17.42;95772.22;5078816;28;20380;-47
2021/03/29 05:03:00;;;;;;;26.65;15.52;;;;;;;25.02;17.40;95772.28;5078300;28;20059;-46
2021/03/29 05:05:27;;;;;;;35.47;15.35;;;;;;;24.96;17.42;95781.66;5078358;28;20356;-49
2021/03/29 05:07:54;;;;;;;30.58;17.20;;;;;;;24.80;16.69;95775.50;5077961;28;20044;-46
2021/03/29 05:10:22;;;;;;;30.55;17.38;;;;;;;23.53;18.93;95770.72;5077440;28;20052;-44
2021/03/29 05:12:49;;;;;;;27.30;17.70;;;;;;;22.35;19.74;95772.13;5078096;28;20048;-46
2021/03/29 05:15:17;;;;;;;30.48;17.77;;;;;;;22.01;20.00;95767.81;5078156;28;20059;-46
2021/03/29 05:17:44;;;;;;;28.08;15.52;;;;;;;22.10;19.64;95770.44;5077820;28;20056;-45
2021/03/29 05:20:11;;;;;;;28.98;15.60;;;;;;;22.69;19.22;95771.03;5077998;28;20053;-47
2021/03/29 05:22:39;;;;;;;26.67;15.63;;;;;;;21.54;20.75;95777.81;5077928;28;20048;-48
2021/03/29 05:25:07;;;;;;;24.67;14.52;;;;;;;21.96;19.97;95770.69;5060486;28;20053;-45
2021/03/29 05:27:34;;;;;;;19.35;11.18;;;;;;;21.76;19.90;95768.78;5097616;28;20059;-46
2021/03/29 05:30:02;;;;;;;20.63;11.85;;;;;;;21.62;20.28;95777.03;5098091;28;20366;-46
2021/03/29 05:32:30;;;;;;;29.10;13.55;;;;;;;21.22;20.91;95769.34;5080575;28;20049;-46
2021/03/29 05:35:00;;;;;;;24.65;11.45;;;;;;;21.79;19.72;95766.25;5077721;28;20044;-45
2021/03/29 05:37:28;;;;;;;20.73;11.82;;;;;;;22.74;19.16;95781.47;5077284;28;20435;-46
2021/03/29 05:39:57;;;;;;;22.27;9.77;;;;;;;22.28;19.46;95771.09;5077615;28;20041;-45
2021/03/29 05:42:28;;;;;;;12.13;7.88;;;;;;;21.16;20.28;95777.84;5077518;28;20056;-44
2021/03/29 05:45:07;;;;;;;15.63;7.68;;;;;;;21.69;19.40;95782.59;5077725;28;20052;-45
2021/03/29 05:47:35;;;;;;;13.52;7.30;;;;;;;21.84;19.60;95778.59;5077335;28;20044;-46
2021/03/29 05:50:12;;;;;;;9.77;6.18;;;;;;;20.75;20.54;95792.47;5072567;28;20044;-45
2021/03/29 05:52:40;;;;;;;11.07;6.07;;;;;;;21.74;19.40;95789.63;5077338;28;20060;-45
2021/03/29 05:55:13;;;;;;;14.23;6.10;;;;;;;22.29;19.16;95783.31;5077474;28;20395;-44
2021/03/29 06:00:35;;;;;;;10.25;5.40;;;;;;;21.78;19.10;95795.84;5042439;28;20048;-46
2021/03/29 06:03:31;;;;;;;7.15;4.90;;;;;;;22.96;18.60;95795.56;5076437;28;20494;-44
2021/03/29 06:06:04;;;;;;;8.27;5.50;;;;;;;24.19;17.25;95783.75;5076792;28;20045;-46
2021/03/29 06:08:32;;;;;;;7.28;4.90;;;;;;;23.69;17.84;95790.31;5059300;28;20040;-46
2021/03/29 06:11:00;;;;;;;8.07;4.93;;;;;;;23.61;17.63;95788.50;5059690;28;20040;-45
2021/03/29 06:13:29;;;;;;;8.23;4.25;;;;;;;23.93;17.12;95794.81;5076964;28;20463;-45
2021/03/29 06:16:10;;;;;;;8.00;4.57;;;;;;;25.47;15.88;95785.22;5077050;28;20052;-46
2021/03/29 06:18:48;;;;;;;11.25;4.57;;;;;;;24.68;16.58;95781.69;5076664;28;20063;-46
2021/03/29 06:21:15;;;;;;;9.82;4.80;;;;;;;23.38;18.71;95786.25;5077020;28;20044;-48
2021/03/29 06:23:57;;;;;;;7.82;5.55;;;;;;;24.60;17.95;95788.75;5076821;28;20048;-46
2021/03/29 06:26:32;;;;;;;9.48;5.57;;;;;;;24.68;17.80;95786.25;5076654;28;20048;-46
2021/03/29 06:28:59;;;;;;;8.13;5.50;;;;;;;25.38;17.25;95786.53;5076557;28;20041;-46
2021/03/29 06:31:32;;;;;;;8.73;5.57;;;;;;;26.46;16.69;95783.19;5059156;28;20055;-46
2021/03/29 06:33:59;;;;;;;;;;;;;;;27.93;14.04;95785.31;5076902;28;20059;-47
2021/03/29 06:36:38;;;;;;;7.50;4.70;;;;;;;29.02;13.13;95789.72;5076654;28;20262;-48
2021/03/29 06:39:18;;;;;;;5.82;4.10;;;;;;;29.62;12.56;95783.28;5076429;28;20068;-48
2021/03/29 06:41:59;;;;;;;9.68;4.20;;;;;;;28.56;13.22;95783.81;5076531;28;20048;-47
2021/03/29 06:44:32;;;;;;;6.95;4.25;;;;;;;28.43;13.21;95791.38;5076451;28;20056;-50
2021/03/29 06:47:13;;;;;;;8.68;4.22;;;;;;;28.52;12.82;95783.00;5076461;28;20051;-50
2021/03/29 06:49:45;;;;;;;8.40;4.10;;;;;;;28.78;12.71;95788.28;5075419;28;20059;-47
2021/03/29 06:52:25;;;;;;;;;;;;;;;27.94;13.02;95788.78;5076301;28;20077;-47
2021/03/29 06:54:53;;;;;;;7.13;4.13;;;;;;;27.59;13.84;95792.47;5076221;28;19919;-49
2021/03/29 06:57:31;;;;;;;10.15;4.00;;;;;;;30.27;11.19;95790.66;5094119;28;20051;-46
2021/03/29 06:59:58;;;;;;;5.13;3.63;;;;;;;29.11;11.83;95792.88;5096409;28;20044;-48
2021/03/29 07:02:39;;;;;;;6.22;4.28;;;;;;;29.25;12.36;95796.84;5096002;28;20040;-48
2021/03/29 07:05:08;;;;;;;19.77;18.30;;;;;;;28.50;12.50;95801.44;5094096;28;20052;-49
2021/03/29 07:07:45;;;;;;;36.20;33.10;;;;;;;28.25;12.26;95796.50;5076129;28;20055;-48
2021/03/29 07:10:15;;;;;;;40.58;36.72;;;;;;;30.17;11.33;95800.22;5075944;28;20052;-51
2021/03/29 07:12:43;;;;;;;8.82;6.45;;;;;;;30.46;10.68;95800.38;5075622;28;20047;-49
2021/03/29 07:15:12;;;;;;;6.93;3.70;;;;;;;28.59;12.32;95799.22;5075990;28;20044;-47
2021/03/29 07:17:42;;;;;;;5.20;3.35;;;;;;;29.58;11.46;95793.28;5075131;28;20052;-48
2021/03/29 07:20:25;;;;;;;5.00;3.35;;;;;;;30.82;10.39;95804.75;5075813;28;20447;-48
2021/03/29 07:22:54;;;;;;;4.60;3.58;;;;;;;30.22;11.11;95801.81;5075409;28;20048;-50
2021/03/29 07:25:29;;;;;;;5.95;3.45;;;;;;;29.16;12.05;95807.94;5075493;28;20048;-48
2021/03/29 07:27:59;;;;;;;4.82;3.20;;;;;;;29.39;11.43;95813.88;5075364;28;20371;-49
2021/03/29 07:30:45;;;;;;;5.85;3.75;;;;;;;30.44;10.90;95806.13;5075895;28;20363;-52
2021/03/29 07:33:14;;;;;;;4.88;3.13;;;;;;;30.86;9.90;95793.97;5075452;28;20040;-47
2021/03/29 07:35:49;;;;;;;5.20;3.60;;;;;;;31.71;10.05;95807.56;5075551;28;20071;-49
2021/03/29 07:38:21;;;;;;;7.22;3.67;;;;;;;29.37;12.13;95818.88;5057725;28;20064;-47
2021/03/29 07:40:49;;;;;;;;;;;;;;;28.70;13.17;95816.25;5075924;28;20047;-46
2021/03/29 07:43:19;;;;;;;5.85;3.30;;;;;;;29.34;12.60;95800.75;5091353;28;19916;-45
2021/03/29 07:45:47;;;;;;;6.10;3.42;;;;;;;30.58;11.35;95798.09;5095624;28;20090;-44
2021/03/29 07:48:16;;;;;;;4.95;3.25;;;;;;;30.16;11.71;95795.19;5095624;28;20046;-48
2021/03/29 07:50:43;;;;;;;5.30;3.78;;;;;;;31.76;9.99;95795.63;5095445;28;20055;-51
2021/03/29 07:53:22;;;;;;;6.38;3.70;;;;;;;31.28;10.67;95801.38;5075674;28;20455;-48
2021/03/29 07:55:54;;;;;;;4.68;3.45;;;;;;;30.45;11.08;95796.09;5074650;28;20059;-49
2021/03/29 07:58:23;;;;;;;7.00;3.60;;;;;;;30.87;11.16;95795.50;5075077;28;20044;-51
2021/03/29 08:01:04;;;;;;;4.47;3.28;;;;;;;31.33;10.46;95805.63;5075209;28;20048;-50
2021/03/29 08:03:31;;;;;;;5.73;3.60;;;;;;;31.32;10.65;95798.69;5057414;28;20056;-53
2021/03/29 08:05:58;;;;;;;5.28;3.30;;;;;;;30.62;11.13;95807.00;5075005;28;20051;-48
2021/03/29 08:08:25;;;;;;;5.20;3.42;;;;;;;31.52;10.72;95799.84;5075131;28;20066;-49
2021/03/29 08:11:05;;;;;;;4.97;3.42;;;;;;;31.24;10.54;95798.69;5075069;28;20053;-58
2021/03/29 08:13:57;;;;;;;6.07;3.33;;;;;;;31.88;10.20;95795.97;5074914;28;20044;-48
2021/03/29 08:16:33;;;;;;;4.80;3.30;;;;;;;31.88;10.65;95800.59;5075041;28;20123;-49
2021/03/29 08:19:20;;;;;;;4.68;3.30;;;;;;;30.45;11.34;95801.50;5074936;28;20349;-51
2021/03/29 08:21:58;;;;;;;5.38;3.20;;;;;;;32.32;10.50;95796.66;5081710;28;20055;-51
2021/03/29 08:24:42;;;;;;;4.40;3.22;;;;;;;30.66;10.98;95794.28;5077085;28;20047;-46
2021/03/29 08:27:17;;;;;;;3.83;2.80;;;;;;;31.71;10.50;95785.13;5074598;28;20059;-47
2021/03/29 08:29:46;;;;;;;4.88;3.45;;;;;;;31.34;10.87;95796.38;5076620;28;20078;-48
2021/03/29 08:32:31;;;;;;;5.70;3.40;;;;;;;31.58;11.12;95790.19;5078582;28;20391;-48
2021/03/29 08:35:05;;;;;;;4.85;3.30;;;;;;;33.02;9.53;95787.41;5078995;28;20047;-49
2021/03/29 08:37:36;;;;;;;5.53;2.97;;;;;;;32.43;9.77;95795.44;5078820;28;20056;-50
2021/03/29 08:40:08;;;;;;;4.75;3.17;;;;;;;32.32;9.92;95789.31;5078851;28;20360;-50
2021/03/29 08:42:35;;;;;;;6.03;3.28;;;;;;;32.30;10.23;95786.22;5078401;28;20052;-48
2021/03/29 08:45:08;;;;;;;5.93;2.70;;;;;;;31.86;10.41;95792.13;5078776;28;20044;-48
2021/03/29 08:47:43;;;;;;;4.18;3.03;;;;;;;31.32;11.31;95795.97;5078781;28;20044;-51
2021/03/29 08:50:19;;;;;;;4.93;3.22;;;;;;;31.07;10.96;95783.19;5070530;28;20047;-50
2021/03/29 08:52:49;;;;;;;9.65;3.25;;;;;;;28.58;13.25;95791.50;5078126;28;20049;-50
2021/03/29 08:55:24;;;;;;;5.35;3.25;;;;;;;31.08;11.44;95789.38;5078373;28;20048;-51
2021/03/29 08:57:54;;;;;;;5.72;2.65;;;;;;;31.66;10.57;95786.31;5078470;28;20056;-48
2021/03/29 09:00:29;;;;;;;4.18;2.75;;;;;;;32.67;9.60;95782.19;5078807;28;20084;-50
2021/03/29 09:02:56;;;;;;;4.78;2.70;;;;;;;32.45;10.62;95776.88;5078050;28;20471;-48
2021/03/29 09:05:25;;;;;;;5.80;2.80;;;;;;;32.92;9.52;95782.84;5078426;28;20051;-51
2021/03/29 09:07:53;;;;;;;6.93;2.80;;;;;;;31.39;10.48;95774.38;5078318;28;20324;-50
2021/03/29 09:10:34;;;;;;;3.85;2.50;;;;;;;32.58;10.12;95781.88;5078321;28;20059;-52
2021/03/29 09:13:05;;;;;;;4.47;2.40;;;;;;;32.59;9.30;95769.88;5077857;28;20041;-52
2021/03/29 09:15:36;;;;;;;5.27;2.27;;;;;;;31.65;10.96;95763.16;5078280;28;20059;-50
2021/03/29 09:18:14;;;;;;;5.38;2.50;;;;;;;30.64;11.47;95756.13;5077930;28;20290;-48
2021/03/29 09:20:51;;;;;;;5.43;2.40;;;;;;;31.58;10.61;95768.56;5078158;28;20048;-50
2021/03/29 09:23:21;;;;;;;3.75;2.40;;;;;;;29.04;12.63;95776.66;5077787;28;20340;-48
2021/03/29 09:25:51;;;;;;;4.53;2.40;;;;;;;28.90;12.41;95770.38;5082935;28;20446;-49
2021/03/29 09:28:32;;;;;;;4.60;2.60;;;;;;;30.14;12.27;95763.22;5087820;28;20060;-53
2021/03/29 09:31:03;;;;;;;4.15;2.63;;;;;;;29.72;12.77;95761.06;5078036;28;20470;-52
2021/03/29 09:33:31;;;;;;;5.57;2.92;;;;;;;32.69;10.14;95766.31;5059842;28;20052;-46
2021/03/29 09:36:18;;;;;;;4.57;2.42;;;;;;;32.34;10.57;95754.53;5077634;28;20451;-50
2021/03/29 09:38:53;;;;;;;5.00;2.72;;;;;;;33.25;9.80;95745.47;5077703;28;20463;-47
2021/03/29 09:41:27;;;;;;;5.38;2.63;;;;;;;33.23;9.51;95753.22;5076773;28;20052;-50
2021/03/29 09:43:56;;;;;;;4.93;2.90;;;;;;;34.05;9.24;95744.38;5077432;28;20052;-51
2021/03/29 09:46:28;;;;;;;4.38;2.70;;;;;;;32.04;10.56;95740.69;5077630;28;20463;-48
2021/03/29 09:49:11;;;;;;;5.30;2.70;;;;;;;32.39;10.19;95746.00;5077651;28;20056;-48
2021/03/29 09:51:39;;;;;;;8.75;3.20;;;;;;;31.10;11.30;95744.63;5077267;28;20059;-53
2021/03/29 09:54:26;;;;;;;5.07;3.17;;;;;;;33.06;10.22;95744.84;5077182;28;20392;-48
2021/03/29 09:56:54;;;;;;;4.82;2.97;;;;;;;33.97;8.88;95730.13;5091436;28;20052;-50
2021/03/29 09:59:35;;;;;;;7.63;2.80;;;;;;;31.99;11.01;95735.66;5079758;28;20483;-46
2021/03/29 10:02:17;;;;;;;4.63;2.40;;;;;;;32.71;10.42;95743.09;5097061;28;20048;-51
2021/03/29 10:04:46;;;;;;;7.07;2.65;;;;;;;32.72;10.65;95741.16;5096893;28;20052;-46
2021/03/29 10:07:22;;;;;;;4.60;2.63;;;;;;;31.93;10.97;95729.91;5097545;28;20040;-46
2021/03/29 10:09:58;;;;;;;3.92;2.63;;;;;;;32.32;10.91;95732.50;5079774;28;20044;-46
2021/03/29 10:12:29;;;;;;;5.65;2.60;;;;;;;32.67;10.23;95728.06;5097015;28;20055;-46
2021/03/29 10:15:09;;;;;;;8.97;3.13;;;;;;;30.82;11.55;95723.78;5097457;28;20043;-46
2021/03/29 10:17:36;;;;;;;9.43;5.00;;;;;;;31.48;11.73;95731.50;5084842;28;20336;-46
2021/03/29 10:20:09;;;;;;;9.00;5.13;;;;;;;30.25;12.84;95729.00;5076979;28;20486;-45
2021/03/29 10:22:37;;;;;;;6.70;3.15;;;;;;;34.28;9.25;95728.97;5076621;28;20044;-48
2021/03/29 10:25:15;;;;;;;6.50;3.22;;;;;;;32.95;9.45;95719.78;5077052;28;20056;-46
2021/03/29 10:27:45;;;;;;;8.07;3.10;;;;;;;32.75;9.59;95724.13;5076740;28;20044;-46
2021/03/29 10:30:22;;;;;;;6.78;3.20;;;;;;;33.27;10.05;95721.44;5076729;28;20049;-45
2021/03/29 10:32:51;;;;;;;6.05;3.28;;;;;;;32.96;10.19;95718.59;5076399;28;20055;-46
2021/03/29 10:35:19;;;;;;;6.05;3.00;;;;;;;31.79;10.96;95709.09;5076686;28;20060;-46
2021/03/29 10:37:47;;;;;;;4.43;2.78;;;;;;;32.60;10.04;95717.28;5076724;28;20045;-52
2021/03/29 10:40:14;;;;;;;4.38;2.65;;;;;;;32.29;10.56;95719.75;5076461;28;20052;-47
2021/03/29 10:42:42;;;;;;;4.35;2.35;;;;;;;32.90;10.42;95703.97;5076199;28;20044;-48
2021/03/29 10:45:11;;;;;;;4.22;2.65;;;;;;;32.94;9.88;95703.91;5076564;28;20063;-45
2021/03/29 10:47:40;;;;;;;4.40;2.67;;;;;;;32.58;10.06;95700.66;5063680;28;20044;-44
2021/03/29 10:50:10;;;;;;;5.90;2.80;;;;;;;32.60;10.36;95703.75;5076418;28;20044;-47
2021/03/29 10:52:37;;;;;;;4.38;2.75;;;;;;;32.63;9.91;95702.94;5065821;28;20044;-45
2021/03/29 10:55:06;;;;;;;3.90;2.50;;;;;;;32.45;9.58;95679.47;5096512;28;20047;-52
2021/03/29 10:57:33;;;;;;;15.43;7.57;;;;;;;32.81;9.68;95690.09;5076145;28;20061;-52
2021/03/29 11:00:02;;;;;;;9.35;7.13;;;;;;;32.63;10.13;95690.19;5076409;28;20479;-50
2021/03/29 11:02:30;;;;;;;7.43;4.80;;;;;;;32.51;10.09;95683.28;5058602;28;20044;-46
2021/03/29 11:04:57;;;;;;;4.32;3.33;;;;;;;31.86;10.48;95681.25;5076422;28;20363;-48
2021/03/29 11:07:24;;;;;;;5.88;2.92;;;;;;;32.13;10.16;95660.69;5076136;28;20044;-54
2021/03/29 11:09:51;;;;;;;4.18;2.70;;;;;;;31.99;10.38;95673.47;5076376;28;20044;-50
2021/03/29 11:12:20;;;;;;;4.63;2.80;;;;;;;32.26;10.47;95666.41;5075876;28;20052;-44
2021/03/29 11:14:48;;;;;;;5.38;3.40;;;;;;;31.88;10.71;95651.91;5076194;28;20051;-47
2021/03/29 11:17:17;;;;;;;4.72;2.40;;;;;;;31.90;10.23;95658.47;5058680;28;20447;-49
2021/03/29 11:19:44;;;;;;;3.80;2.85;;;;;;;31.25;11.10;95665.19;5075740;28;20071;-46
2021/03/29 11:22:11;;;;;;;5.15;3.13;;;;;;;32.49;10.39;95653.16;5075335;28;20055;-49
2021/03/29 11:24:38;;;;;;;4.25;2.85;;;;;;;31.90;11.16;95653.03;5075767;28;20056;-48
2021/03/29 11:27:05;;;;;;;4.53;2.63;;;;;;;32.17;10.47;95647.13;5072709;28;20083;-46
2021/03/29 11:29:32;;;;;;;6.18;3.70;;;;;;;32.26;10.21;95639.38;5096010;28;20043;-46
2021/03/29 11:32:01;;;;;;;8.77;6.97;;;;;;;31.98;11.13;95639.50;5095702;28;20052;-46
2021/03/29 11:34:28;;;;;;;6.97;3.60;;;;;;;32.16;10.41;95637.47;5077983;28;20054;-43
2021/03/29 11:36:55;;;;;;;11.20;7.85;;;;;;;32.00;10.55;95637.94;5095569;28;20051;-45
2021/03/29 11:39:22;;;;;;;4.55;3.30;;;;;;;32.25;10.66;95623.50;5095803;28;20434;-46
2021/03/29 11:41:49;;;;;;;5.15;3.28;;;;;;;31.88;10.89;95622.94;5095524;28;20051;-46
2021/03/29 11:44:16;;;;;;;4.85;2.53;;;;;;;32.30;10.41;95615.78;5095698;28;20039;-49
2021/03/29 11:46:43;;;;;;;5.40;2.65;;;;;;;32.66;9.94;95616.31;5095403;28;20385;-48
2021/03/29 11:49:11;;;;;;;6.18;2.90;;;;;;;31.82;10.98;95610.22;5095674;28;20051;-49
2021/03/29 11:51:38;;;;;;;4.20;2.70;;;;;;;32.29;10.65;95597.25;5095500;28;20055;-46
2021/03/29 11:54:06;;;;;;;9.35;4.93;;;;;;;31.94;10.75;95593.53;5095584;28;20048;-47